Time;durP1;ratioP1;P1;durP2;ratioP2;P2;SDS_P1;SDS_P2;PMS_P1;PMS_P2;Temp;Humidity;BMP_temperature;BMP_pressure;BME280_temperature;BME280_humidity;BME280_pressure;Samples;Min_cycle;Max_cycle;Signal;HPM_P1;HPM_P2
2022/07/30 13:21:56;;;;;;;;;23.00;23.00;;;;;;;;5115812;28;5095863;-76
2022/07/30 13:24:27;;;;;;;;;19.50;19.50;;;;;;;;5259909;28;8852;-76
2022/07/30 13:26:58;;;;;;;;;17.50;17.50;;;;;;;;5236356;28;8785;-78
2022/07/30 13:29:47;;;;;;;;;17.25;17.25;;;;;;;;5252535;28;8874;-76
2022/07/30 13:32:18;;;;;;;;;16.33;16.33;;;;;;;;5246225;28;8799;-75
2022/07/30 13:34:49;;;;;;;;;30.33;29.00;;;;;;;;5240126;28;8803;-75
2022/07/30 13:37:20;;;;;;;;;28.25;27.75;;;;;;;;5226747;28;11683;-73
2022/07/30 13:40:09;;;;;;;;;25.00;24.75;;;;;;;;5270805;28;9523;-74
2022/07/30 13:42:41;;;;;;;;;20.00;20.00;;;;;;;;5270298;28;8794;-74
2022/07/30 13:45:12;;;;;;;;;40.40;35.80;;;;;;;;5235272;28;8789;-75
2022/07/30 13:47:43;;;;;;;;;22.50;22.50;;;;;;;;5252378;28;8885;-75
2022/07/30 13:50:14;;;;;;;;;18.33;18.33;;;;;;;;5235652;28;8878;-75
2022/07/30 13:52:45;;;;;;;;;18.00;18.00;;;;;;;;5252303;28;9500;-76
2022/07/30 13:55:16;;;;;;;;;29.00;27.25;;;;;;;;5235608;28;8797;-75
2022/07/30 13:57:47;;;;;;;;;24.25;24.25;;;;;;;;5251660;28;8790;-75
2022/07/30 14:00:18;;;;;;;;;22.25;21.75;;;;;;;;5219163;28;8851;-74
2022/07/30 14:02:50;;;;;;;;;17.00;17.00;;;;;;;;5235139;28;8785;-74
2022/07/30 14:05:40;;;;;;;;;17.00;17.00;;;;;;;;5259983;28;8795;-75
2022/07/30 14:08:11;;;;;;;;;16.25;16.25;;;;;;;;5255652;28;8805;-75
2022/07/30 14:10:42;;;;;;;;;18.25;18.25;;;;;;;;5251363;28;8864;-74
2022/07/30 14:13:13;;;;;;;;;20.25;20.25;;;;;;;;5250475;28;9567;-73
2022/07/30 14:16:02;;;;;;;;;11.25;9.00;;;;;;;;5251637;28;9406;-73
2022/07/30 14:18:33;;;;;;;;;16.50;16.25;;;;;;;;5244729;28;8831;-73
2022/07/30 14:21:04;;;;;;;;;17.50;16.75;;;;;;;;5255384;28;8811;-73
2022/07/30 14:23:36;;;;;;;;;18.00;18.00;;;;;;;;5285234;28;8922;-74
2022/07/30 14:26:07;;;;;;;;;16.00;16.00;;;;;;;;5238079;28;9700;-74
2022/07/30 14:28:38;;;;;;;;;19.00;18.75;;;;;;;;5255311;28;8798;-75
2022/07/30 14:31:09;;;;;;;;;18.25;18.25;;;;;;;;5250192;28;8881;-74
2022/07/30 14:33:40;;;;;;;;;17.75;17.75;;;;;;;;5251191;28;8790;-75
2022/07/30 14:36:11;;;;;;;;;15.75;15.75;;;;;;;;5234762;28;8993;-75
2022/07/30 14:38:44;;;;;;;;;18.75;18.75;;;;;;;;5259051;28;8849;-75
2022/07/30 14:41:15;;;;;;;;;17.75;17.75;;;;;;;;5270455;28;8831;-74
2022/07/30 14:43:46;;;;;;;;;16.75;16.75;;;;;;;;5270065;28;8819;-75
2022/07/30 14:46:17;;;;;;;;;16.50;16.50;;;;;;;;5236991;28;8915;-74
2022/07/30 14:49:07;;;;;;;;;18.75;18.75;;;;;;;;5256142;28;8787;-74
2022/07/30 14:51:38;;;;;;;;;20.00;20.00;;;;;;;;5288330;28;8847;-73
2022/07/30 14:54:10;;;;;;;;;19.67;19.67;;;;;;;;5258524;28;8829;-75
2022/07/30 14:56:41;;;;;;;;;20.50;20.50;;;;;;;;5232774;28;8883;-74
2022/07/30 14:59:31;;;;;;;;;21.25;20.50;;;;;;;;5235090;28;8781;-74
2022/07/30 15:02:20;;;;;;;;;19.00;19.00;;;;;;;;5236579;28;8940;-74
2022/07/30 15:04:51;;;;;;;;;18.33;18.00;;;;;;;;5253093;28;8919;-74
2022/07/30 15:07:22;;;;;;;;;23.67;23.67;;;;;;;;5269997;28;11028;-75
2022/07/30 15:09:53;;;;;;;;;25.75;25.75;;;;;;;;5269720;28;9905;-76
2022/07/30 15:12:43;;;;;;;;;20.00;20.00;;;;;;;;5254361;28;8830;-75
2022/07/30 15:15:33;;;;;;;;;24.00;24.00;;;;;;;;5250257;28;8835;-75
2022/07/30 15:18:04;;;;;;;;;30.25;29.00;;;;;;;;5228915;28;8945;-76
2022/07/30 15:20:35;;;;;;;;;34.50;31.50;;;;;;;;5269422;28;8929;-75
2022/07/30 15:23:06;;;;;;;;;35.50;32.25;;;;;;;;5231854;28;8852;-76
2022/07/30 15:25:38;;;;;;;;;35.75;32.25;;;;;;;;5225062;28;8801;-76
2022/07/30 15:28:09;;;;;;;;;35.75;32.75;;;;;;;;5232017;28;8797;-77
2022/07/30 15:30:40;;;;;;;;;30.00;28.67;;;;;;;;5233511;28;8803;-76
2022/07/30 15:33:11;;;;;;;;;32.50;30.25;;;;;;;;5250340;28;11541;-78
2022/07/30 15:35:41;;;;;;;;;34.00;31.33;;;;;;;;5231371;28;8793;-74
2022/07/30 15:38:12;;;;;;;;;32.00;30.33;;;;;;;;5268039;28;11554;-73
2022/07/30 15:40:43;;;;;;;;;31.00;29.75;;;;;;;;5234124;28;8798;-73
2022/07/30 15:43:14;;;;;;;;;30.25;29.00;;;;;;;;5268701;28;8833;-74
2022/07/30 15:45:45;;;;;;;;;30.33;28.67;;;;;;;;5257286;28;8802;-73
2022/07/30 15:48:16;;;;;;;;;42.50;36.25;;;;;;;;5238311;28;8824;-73
2022/07/30 15:50:47;;;;;;;;;42.25;36.75;;;;;;;;5282327;28;10532;-74
2022/07/30 15:53:18;;;;;;;;;46.00;39.40;;;;;;;;5270708;28;9581;-74
2022/07/30 15:55:49;;;;;;;;;47.50;40.00;;;;;;;;5249353;28;8805;-73
2022/07/30 15:58:20;;;;;;;;;43.40;36.80;;;;;;;;5270297;28;11457;-73
2022/07/30 16:00:51;;;;;;;;;41.25;35.75;;;;;;;;5252852;28;9593;-74
2022/07/30 16:03:22;;;;;;;;;33.00;31.00;;;;;;;;5279141;28;8827;-74
2022/07/30 16:06:11;;;;;;;;;38.80;33.80;;;;;;;;5256067;28;8803;-74
2022/07/30 16:08:43;;;;;;;;;35.40;32.40;;;;;;;;5271942;28;8837;-74
2022/07/30 16:11:14;;;;;;;;;39.25;34.75;;;;;;;;5268361;28;8833;-74
2022/07/30 16:13:45;;;;;;;;;38.40;34.40;;;;;;;;5253165;28;8823;-75
2022/07/30 16:16:16;;;;;;;;;43.20;37.00;;;;;;;;5249262;28;9572;-74
2022/07/30 16:18:47;;;;;;;;;53.00;44.40;;;;;;;;5268122;28;9488;-73
2022/07/30 16:21:18;;;;;;;;;36.40;33.40;;;;;;;;5249687;28;8837;-73
2022/07/30 16:23:51;;;;;;;;;26.00;26.00;;;;;;;;5266276;28;8805;-73
2022/07/30 16:26:25;;;;;;;;;23.50;23.50;;;;;;;;5267008;28;9887;-73
2022/07/30 16:28:57;;;;;;;;;18.75;18.75;;;;;;;;5235729;28;8810;-73
2022/07/30 16:31:27;;;;;;;;;24.33;24.33;;;;;;;;5235056;28;8900;-73
2022/07/30 16:33:58;;;;;;;;;24.50;24.50;;;;;;;;5248914;28;8945;-72
2022/07/30 16:36:29;;;;;;;;;27.67;27.00;;;;;;;;5240448;28;8898;-73
2022/07/30 16:39:00;;;;;;;;;33.50;31.25;;;;;;;;5251789;28;9985;-72
2022/07/30 16:41:31;;;;;;;;;30.25;29.00;;;;;;;;5252663;28;12274;-73
2022/07/30 16:44:03;;;;;;;;;26.75;26.50;;;;;;;;5252743;28;12280;-72
2022/07/30 16:46:34;;;;;;;;;22.50;21.50;;;;;;;;5287562;28;8815;-72
2022/07/30 16:49:05;;;;;;;;;29.00;29.00;;;;;;;;5265458;28;8856;-72
2022/07/30 16:51:35;;;;;;;;;31.75;30.50;;;;;;;;5248933;28;8801;-71
2022/07/30 16:54:06;;;;;;;;;33.67;31.67;;;;;;;;5232256;28;8810;-72
2022/07/30 16:56:37;;;;;;;;;36.00;32.25;;;;;;;;5215503;28;11238;-71
2022/07/30 16:59:08;;;;;;;;;36.00;32.80;;;;;;;;5248695;28;8862;-72
2022/07/30 17:01:39;;;;;;;;;29.00;29.00;;;;;;;;5266854;28;8854;-71
2022/07/30 17:04:28;;;;;;;;;23.25;23.25;;;;;;;;5286671;28;11468;-72
2022/07/30 17:06:59;;;;;;;;;19.00;19.00;;;;;;;;5236238;28;8775;-71
2022/07/30 17:09:30;;;;;;;;;25.67;25.67;;;;;;;;5269352;28;8779;-72
2022/07/30 17:12:01;;;;;;;;;22.67;22.67;;;;;;;;5263510;28;11597;-72
2022/07/30 17:14:32;;;;;;;;;24.00;23.67;;;;;;;;5231897;28;8796;-72
2022/07/30 17:17:06;;;;;;;;;20.75;20.75;;;;;;;;5248546;28;11452;-72
2022/07/30 17:19:41;;;;;;;;;28.00;25.00;;;;;;;;5223372;28;8837;-72
2022/07/30 17:22:12;;;;;;;;;23.00;23.00;;;;;;;;5242851;28;8827;-72
2022/07/30 17:24:43;;;;;;;;;25.00;25.00;;;;;;;;5258942;28;8888;-72
2022/07/30 17:27:14;;;;;;;;;25.33;25.33;;;;;;;;5252637;28;8844;-73
2022/07/30 17:29:46;;;;;;;;;26.20;26.20;;;;;;;;5246950;28;11524;-73
2022/07/30 17:32:18;;;;;;;;;21.75;21.75;;;;;;;;5230002;28;8800;-73
2022/07/30 17:34:49;;;;;;;;;29.25;29.25;;;;;;;;5241821;28;8810;-73
2022/07/30 17:37:38;;;;;;;;;29.60;28.80;;;;;;;;5244670;28;8787;-72
2022/07/30 17:40:11;;;;;;;;;26.33;25.67;;;;;;;;5255367;28;9558;-72
2022/07/30 17:42:44;;;;;;;;;29.50;29.00;;;;;;;;5244136;28;11657;-73
2022/07/30 17:45:15;;;;;;;;;28.75;28.75;;;;;;;;5228077;28;9549;-72
2022/07/30 17:48:05;;;;;;;;;26.60;26.00;;;;;;;;5248662;28;8848;-73
2022/07/30 17:50:36;;;;;;;;;28.25;28.25;;;;;;;;5248039;28;8783;-72
2022/07/30 17:53:07;;;;;;;;;25.50;25.50;;;;;;;;5237678;28;8811;-73
2022/07/30 17:55:41;;;;;;;;;24.75;24.75;;;;;;;;5248834;28;8987;-72
2022/07/30 17:58:14;;;;;;;;;29.50;29.00;;;;;;;;5231897;28;8829;-72
2022/07/30 18:00:45;;;;;;;;;31.00;29.50;;;;;;;;5230784;28;8799;-71
2022/07/30 18:03:16;;;;;;;;;28.75;28.75;;;;;;;;5231122;28;9173;-73
2022/07/30 18:05:47;;;;;;;;;25.00;25.00;;;;;;;;5244779;28;8818;-71
2022/07/30 18:08:18;;;;;;;;;25.50;25.50;;;;;;;;5260169;28;8812;-72
2022/07/30 18:11:07;;;;;;;;;24.40;24.40;;;;;;;;5254233;28;8793;-71
2022/07/30 18:13:38;;;;;;;;;27.00;27.00;;;;;;;;5267997;28;8785;-72
2022/07/30 18:16:10;;;;;;;;;25.50;25.50;;;;;;;;5268218;28;9554;-72
2022/07/30 18:18:41;;;;;;;;;27.40;27.00;;;;;;;;5249797;28;8959;-72
2022/07/30 18:21:12;;;;;;;;;23.50;23.50;;;;;;;;5230391;28;8929;-73
2022/07/30 18:23:43;;;;;;;;;27.00;26.25;;;;;;;;5247629;28;9564;-71
2022/07/30 18:26:13;;;;;;;;;23.50;23.50;;;;;;;;5259937;28;11579;-72
2022/07/30 18:29:03;;;;;;;;;27.25;27.25;;;;;;;;5248565;28;8917;-72
2022/07/30 18:31:34;;;;;;;;;26.00;26.00;;;;;;;;5247242;28;8937;-72
2022/07/30 18:34:06;;;;;;;;;29.20;28.80;;;;;;;;5247394;28;9030;-73
2022/07/30 18:36:37;;;;;;;;;26.40;26.00;;;;;;;;5259281;28;8812;-72
2022/07/30 18:39:08;;;;;;;;;7.75;6.25;;;;;;;;5245913;28;8841;-72
2022/07/30 18:41:39;;;;;;;;;25.25;25.25;;;;;;;;5234709;28;11419;-73
2022/07/30 18:44:10;;;;;;;;;28.33;27.67;;;;;;;;5228928;28;11533;-73
2022/07/30 18:46:41;;;;;;;;;22.50;22.25;;;;;;;;5241363;28;9548;-72
2022/07/30 18:49:30;;;;;;;;;25.50;25.00;;;;;;;;5238499;28;8821;-72
2022/07/30 18:52:01;;;;;;;;;23.25;23.25;;;;;;;;5264384;28;8773;-72
2022/07/30 18:54:32;;;;;;;;;21.67;21.67;;;;;;;;5252801;28;8813;-72
2022/07/30 18:57:03;;;;;;;;;21.75;21.75;;;;;;;;5257587;28;8872;-72
2022/07/30 18:59:52;;;;;;;;;21.75;21.75;;;;;;;;5262080;28;8915;-73
2022/07/30 19:02:42;;;;;;;;;19.50;19.50;;;;;;;;5246821;28;9641;-72
2022/07/30 19:05:13;;;;;;;;;23.25;23.25;;;;;;;;5236876;28;8828;-72
2022/07/30 19:07:44;;;;;;;;;22.00;22.00;;;;;;;;5252812;28;9513;-72
2022/07/30 19:10:15;;;;;;;;;23.67;23.33;;;;;;;;5233579;28;9991;-72
2022/07/30 19:12:46;;;;;;;;;22.00;22.00;;;;;;;;5228986;28;8826;-72
2022/07/30 19:15:17;;;;;;;;;24.25;23.75;;;;;;;;5249748;28;8822;-73
2022/07/30 19:17:50;;;;;;;;;21.75;21.75;;;;;;;;5218643;28;8799;-72
2022/07/30 19:20:22;;;;;;;;;24.50;24.50;;;;;;;;5233502;28;8806;-73
2022/07/30 19:23:01;;;;;;;;;26.60;25.60;;;;;;;;5259047;28;8834;-72
2022/07/30 19:25:32;;;;;;;;;25.00;25.00;;;;;;;;5251510;28;8816;-72
2022/07/30 19:28:04;;;;;;;;;24.00;23.40;;;;;;;;5247257;28;8819;-74
2022/07/30 19:30:53;;;;;;;;;26.00;26.00;;;;;;;;5245941;28;8917;-72
2022/07/30 19:33:24;;;;;;;;;25.00;24.50;;;;;;;;5228067;28;8864;-73
2022/07/30 19:36:15;;;;;;;;;24.25;23.75;;;;;;;;5245453;28;8810;-72
2022/07/30 19:38:46;;;;;;;;;19.75;19.75;;;;;;;;5262526;28;8878;-72
2022/07/30 19:41:17;;;;;;;;;20.50;20.50;;;;;;;;5264970;28;8880;-74
2022/07/30 19:44:10;;;;;;;;;20.75;20.75;;;;;;;;5270184;28;8800;-72
2022/07/30 19:46:41;;;;;;;;;22.25;22.25;;;;;;;;5247580;28;8799;-72
2022/07/30 19:49:12;;;;;;;;;21.00;21.00;;;;;;;;5267958;28;8873;-70
2022/07/30 19:51:43;;;;;;;;;20.67;20.67;;;;;;;;5257113;28;9612;-72
2022/07/30 19:54:14;;;;;;;;;17.67;17.67;;;;;;;;5245921;28;9878;-73
2022/07/30 19:56:45;;;;;;;;;20.00;20.00;;;;;;;;5239281;28;8818;-73
2022/07/30 19:59:17;;;;;;;;;19.75;19.75;;;;;;;;5232678;28;11513;-72
2022/07/30 20:01:48;;;;;;;;;20.25;20.25;;;;;;;;5238152;28;8803;-73
2022/07/30 20:04:19;;;;;;;;;20.25;19.25;;;;;;;;5263308;28;9522;-73
2022/07/30 20:07:08;;;;;;;;;13.00;13.00;;;;;;;;5245361;28;9525;-72
2022/07/30 20:09:40;;;;;;;;;22.67;21.00;;;;;;;;5245747;28;8835;-72
2022/07/30 20:12:13;;;;;;;;;16.50;16.50;;;;;;;;5239765;28;10828;-72
2022/07/30 20:15:03;;;;;;;;;22.00;22.00;;;;;;;;5252751;28;8816;-73
2022/07/30 20:17:34;;;;;;;;;9.75;9.75;;;;;;;;5234921;28;8791;-72
2022/07/30 20:20:05;;;;;;;;;24.33;24.33;;;;;;;;5260785;28;8768;-72
2022/07/30 20:22:36;;;;;;;;;22.50;22.50;;;;;;;;5246058;28;11524;-72
2022/07/30 20:25:08;;;;;;;;;24.50;24.50;;;;;;;;5246517;28;8816;-73
2022/07/30 20:27:39;;;;;;;;;24.80;24.80;;;;;;;;5255735;28;8789;-72
2022/07/30 20:30:10;;;;;;;;;23.50;23.50;;;;;;;;5248352;28;8799;-72
2022/07/30 20:32:41;;;;;;;;;25.00;25.00;;;;;;;;5246404;28;8816;-72
2022/07/30 20:35:12;;;;;;;;;22.75;22.50;;;;;;;;5245362;28;8926;-73
2022/07/30 20:37:43;;;;;;;;;21.67;21.67;;;;;;;;5252481;28;9025;-73
2022/07/30 20:40:14;;;;;;;;;20.00;20.00;;;;;;;;5244165;28;8775;-72
2022/07/30 20:43:04;;;;;;;;;20.75;20.25;;;;;;;;5246592;28;8771;-73
2022/07/30 20:45:39;;;;;;;;;20.50;20.50;;;;;;;;5262850;28;8797;-72
2022/07/30 20:48:33;;;;;;;;;19.75;19.75;;;;;;;;5232318;28;8810;-72
2022/07/30 20:51:05;;;;;;;;;19.75;19.25;;;;;;;;5264866;28;8819;-72
2022/07/30 20:53:36;;;;;;;;;20.50;20.50;;;;;;;;5265307;28;8796;-72
2022/07/30 20:56:07;;;;;;;;;21.33;21.33;;;;;;;;5259227;28;8804;-72
2022/07/30 20:58:38;;;;;;;;;23.75;23.25;;;;;;;;5248099;28;9007;-72
2022/07/30 21:01:09;;;;;;;;;22.00;22.00;;;;;;;;5266234;28;8776;-72
2022/07/30 21:03:41;;;;;;;;;26.00;26.00;;;;;;;;5229133;28;10197;-72
2022/07/30 21:06:12;;;;;;;;;24.00;24.00;;;;;;;;5251123;28;8764;-72
2022/07/30 21:08:43;;;;;;;;;21.25;21.25;;;;;;;;5250602;28;8822;-72
2022/07/30 21:11:16;;;;;;;;;21.50;21.50;;;;;;;;5252944;28;8813;-72
2022/07/30 21:13:47;;;;;;;;;24.75;24.00;;;;;;;;5265631;28;8822;-72
2022/07/30 21:16:20;;;;;;;;;18.67;18.67;;;;;;;;5248106;28;8803;-72
2022/07/30 21:18:53;;;;;;;;;20.00;20.00;;;;;;;;5244147;28;9714;-72
2022/07/30 21:21:25;;;;;;;;;20.50;20.50;;;;;;;;5233536;28;8817;-72
2022/07/30 21:23:57;;;;;;;;;20.00;20.00;;;;;;;;5248230;28;8865;-71
2022/07/30 21:26:28;;;;;;;;;23.75;23.75;;;;;;;;5215848;28;8807;-73
2022/07/30 21:28:59;;;;;;;;;21.00;21.00;;;;;;;;5225528;28;8788;-74
2022/07/30 21:31:31;;;;;;;;;24.25;23.75;;;;;;;;5252523;28;8813;-73
2022/07/30 21:34:02;;;;;;;;;22.25;22.25;;;;;;;;5247909;28;8814;-74
2022/07/30 21:36:34;;;;;;;;;24.00;24.00;;;;;;;;5267786;28;8793;-73
2022/07/30 21:39:05;;;;;;;;;17.80;17.80;;;;;;;;5253905;28;8803;-75
2022/07/30 21:41:55;;;;;;;;;25.25;25.25;;;;;;;;5249662;28;8807;-74
2022/07/30 21:44:26;;;;;;;;;18.00;18.00;;;;;;;;5246710;28;8845;-74
2022/07/30 21:46:57;;;;;;;;;23.50;23.25;;;;;;;;5261866;28;8769;-75
2022/07/30 21:49:28;;;;;;;;;22.25;21.75;;;;;;;;5261514;28;8905;-75
2022/07/30 21:51:59;;;;;;;;;25.40;25.20;;;;;;;;5242996;28;8806;-73
2022/07/30 21:54:30;;;;;;;;;25.00;24.25;;;;;;;;5258512;28;8803;-72
2022/07/30 21:57:01;;;;;;;;;21.25;21.25;;;;;;;;5231858;28;8779;-72
2022/07/30 21:59:33;;;;;;;;;24.25;23.25;;;;;;;;5248379;28;9696;-72
2022/07/30 22:02:03;;;;;;;;;25.50;25.25;;;;;;;;5248337;28;8921;-72
2022/07/30 22:04:34;;;;;;;;;21.00;21.00;;;;;;;;5232647;28;8819;-72
2022/07/30 22:07:06;;;;;;;;;17.00;17.00;;;;;;;;5269060;28;8780;-71
2022/07/30 22:09:37;;;;;;;;;24.25;24.25;;;;;;;;5270152;28;8910;-71
2022/07/30 22:12:08;;;;;;;;;22.75;22.75;;;;;;;;5269112;28;8962;-72
2022/07/30 22:14:39;;;;;;;;;21.50;21.50;;;;;;;;5268699;28;8853;-72
2022/07/30 22:17:10;;;;;;;;;20.25;19.75;;;;;;;;5269010;28;8792;-72
2022/07/30 22:19:41;;;;;;;;;22.75;22.75;;;;;;;;5234900;28;8819;-72
2022/07/30 22:22:12;;;;;;;;;21.40;21.40;;;;;;;;5235186;28;8807;-72
2022/07/30 22:24:43;;;;;;;;;23.80;23.80;;;;;;;;5246752;28;8819;-71
2022/07/30 22:27:14;;;;;;;;;20.00;20.00;;;;;;;;5247575;28;8838;-71
2022/07/30 22:29:47;;;;;;;;;23.00;23.00;;;;;;;;5214199;28;8852;-71
2022/07/30 22:32:18;;;;;;;;;24.00;24.00;;;;;;;;5247416;28;8789;-72
2022/07/30 22:34:50;;;;;;;;;21.00;21.00;;;;;;;;5229720;28;8857;-71
2022/07/30 22:37:21;;;;;;;;;23.80;23.20;;;;;;;;5214079;28;8856;-72
2022/07/30 22:39:52;;;;;;;;;24.60;24.20;;;;;;;;5218399;28;8806;-72
2022/07/30 22:42:42;;;;;;;;;18.00;17.50;;;;;;;;5247433;28;8864;-72
2022/07/30 22:45:13;;;;;;;;;21.75;21.75;;;;;;;;5221653;28;8807;-72
2022/07/30 22:47:44;;;;;;;;;20.75;20.75;;;;;;;;5248545;28;8806;-71
2022/07/30 22:50:15;;;;;;;;;21.50;21.50;;;;;;;;5248759;28;8829;-71
2022/07/30 22:52:46;;;;;;;;;22.75;22.75;;;;;;;;5247310;28;8786;-71
2022/07/30 22:55:21;;;;;;;;;21.00;21.00;;;;;;;;5247086;28;8783;-72
2022/07/30 22:57:54;;;;;;;;;23.00;22.60;;;;;;;;5230648;28;8775;-71
2022/07/30 23:00:25;;;;;;;;;30.00;30.00;;;;;;;;5241474;28;8811;-71
2022/07/30 23:02:56;;;;;;;;;42.60;37.60;;;;;;;;5247049;28;9617;-71
2022/07/30 23:05:46;;;;;;;;;32.60;31.20;;;;;;;;5266431;28;8813;-72
2022/07/30 23:08:18;;;;;;;;;20.20;20.20;;;;;;;;5267690;28;8761;-72
2022/07/30 23:10:49;;;;;;;;;18.00;17.80;;;;;;;;5250742;28;8781;-72
2022/07/30 23:13:21;;;;;;;;;27.80;27.40;;;;;;;;5267612;28;8797;-72
2022/07/30 23:15:55;;;;;;;;;35.40;33.00;;;;;;;;5251515;28;8828;-73
2022/07/30 23:18:27;;;;;;;;;47.00;40.40;;;;;;;;5249193;28;9739;-72
2022/07/30 23:20:59;;;;;;;;;34.00;32.75;;;;;;;;5229775;28;8957;-72
2022/07/30 23:23:34;;;;;;;;;36.20;33.60;;;;;;;;5229914;28;10058;-72
2022/07/30 23:26:07;;;;;;;;;37.80;34.00;;;;;;;;5231370;28;9575;-72
2022/07/30 23:28:38;;;;;;;;;30.00;29.60;;;;;;;;5229839;28;8790;-72
2022/07/30 23:31:27;;;;;;;;;33.80;32.60;;;;;;;;5232601;28;8813;-72
2022/07/30 23:34:17;;;;;;;;;25.60;25.60;;;;;;;;5232718;28;9470;-72
2022/07/30 23:36:51;;;;;;;;;21.80;21.80;;;;;;;;5229608;28;8787;-72
2022/07/30 23:39:23;;;;;;;;;25.40;25.40;;;;;;;;5230110;28;8922;-72
2022/07/30 23:41:54;;;;;;;;;27.25;26.75;;;;;;;;5230454;28;9518;-72
2022/07/30 23:44:25;;;;;;;;;24.25;24.25;;;;;;;;5262744;28;8850;-72
2022/07/30 23:46:56;;;;;;;;;23.20;23.20;;;;;;;;5266236;28;8804;-72
2022/07/30 23:49:27;;;;;;;;;24.25;23.75;;;;;;;;5250161;28;9665;-72
2022/07/30 23:51:59;;;;;;;;;21.60;21.40;;;;;;;;5250247;28;8789;-73
2022/07/30 23:54:30;;;;;;;;;24.00;23.60;;;;;;;;5250483;28;8796;-72
2022/07/30 23:57:02;;;;;;;;;32.20;30.80;;;;;;;;5266827;28;9558;-72
2022/07/30 23:59:34;;;;;;;;;22.75;22.75;;;;;;;;5266992;28;8814;-72
